Billy Bishop Toronto City Centre Airport

CYTZ · 安大略, 加拿大

METAR的历史 CYTZ · 比利·畢曉普多倫多市機場

下面你可以看到过去几天的METARs。 选择年份以浏览从2007年开始的旧METAR。

2022年11月28日

时间 代码 天气 温度 能见度 天花板 METAR/SPECI
20:00
V
2 °C 9 mi 3.100 ft 330° 330° 8 kt METAR CYTZ 290100Z AUTO 33008KT 290V020 9SM OVC031 02/M05 A3006 RMK SLP186
19:00
V
2 °C 9 mi 3.100 ft 330° 330° 6 kt METAR CYTZ 290000Z AUTO 33006KT 290V030 9SM OVC031 02/M05 A3006 RMK SLP184
18:00
V
2 °C 9 mi 3.100 ft 300° 300° 10 kt METAR CYTZ 282300Z AUTO 30010KT 9SM OVC031 02/M05 A3004 RMK SLP177
17:00
V
2 °C 9 mi 3.100 ft 310° 310° 13 kt METAR CYTZ 282200Z AUTO 31013KT 9SM OVC031 02/M04 A3002 RMK SLP171
16:00
V
3 °C 9 mi 3.100 ft 330° 330° 11 - 16 kt METAR CYTZ 282100Z AUTO 33011G16KT 9SM OVC031 03/M04 A2999 RMK SLP161
15:00
V
3 °C 9 mi 3.100 ft 330° 330° 11 - 22 kt METAR CYTZ 282000Z AUTO 33011G22KT 280V360 9SM OVC031 03/M04 A2997 RMK SLP152
14:00
V
3 °C 9 mi 3.100 ft 310° 310° 11 - 16 kt METAR CYTZ 281900Z AUTO 31011G16KT 280V340 9SM OVC031 03/M04 A2995 RMK SLP146
13:00
V
3 °C 9 mi 3.100 ft 310° 310° 13 - 20 kt METAR CYTZ 281800Z AUTO 31013G20KT 9SM OVC031 03/M04 A2993 RMK SLP140
12:00
V
3 °C 9 mi 3.100 ft 330° 330° 10 - 18 kt METAR CYTZ 281700Z AUTO 33010G18KT 300V010 9SM OVC031 03/M04 A2992 RMK SLP138
11:00
M
3 °C 9 mi 2.900 ft 320° 320° 12 - 22 kt METAR CYTZ 281600Z AUTO 32012G22KT 9SM OVC029 03/M04 A2993 RMK SLP140
10:00
M
2 °C 9 mi 2.500 ft 330° 330° 13 - 22 kt METAR CYTZ 281500Z AUTO 33013G22KT 9SM OVC025 02/M03 A2990 RMK SLP130
09:45
M
2 °C 9 mi 2.500 ft 310° 310° 13 - 20 kt METAR CYTZ 281445Z AUTO 31013G20KT 280V350 9SM OVC025 02/M03 A2989 RMK SLP127
09:00
M
2 °C 9 mi 2.300 ft 320° 320° 12 - 20 kt METAR CYTZ 281400Z AUTO 32012G20KT 300V360 9SM OVC023 02/M02 A2987 RMK SLP120
08:38
M
2 °C 9 mi 2.300 ft 330° 330° 11 - 20 kt METAR CYTZ 281338Z AUTO 33011G20KT 9SM BKN023 02/M02 A2986 RMK PRESRR SLP116
08:00
V
1 °C 9 mi - 320° 320° 7 - 16 kt METAR CYTZ 281300Z AUTO 32007G16KT 300V360 9SM FEW019 01/M02 A2983 RMK SLP107
07:44
V
2 °C 9 mi - 350° 350° 6 - 17 kt METAR CYTZ 281244Z AUTO 35006G17KT 320V020 9SM SCT019 02/M02 A2982 RMK SLP104
07:25
M
2 °C 9 mi 1.900 ft 320° 320° 9 - 16 kt METAR CYTZ 281225Z AUTO 32009G16KT 290V030 9SM BKN019 02/M02 A2981 RMK SLP099
07:00
V
1 °C 9 mi - 330° 330° 9 - 16 kt METAR CYTZ 281200Z AUTO 33009G16KT 270V040 9SM FEW018 01/M02 A2979 RMK SLP093
06:41
V
2 °C 9 mi - 010° 010° 8 - 15 kt METAR CYTZ 281141Z AUTO 01008G15KT 290V040 9SM SCT018 02/M02 A2978 RMK SLP089
06:35
M
2 °C 9 mi 1.800 ft 330° 330° 5 - 15 kt METAR CYTZ 281135Z AUTO 33005G15KT 9SM BKN018 02/M02 A2978 RMK SLP089
06:02
V
2 °C 9 mi - 340° 340° 12 - 26 kt METAR CYTZ 281102Z AUTO 34012G26KT 9SM SCT020 02/M02 A2976 RMK SLP081
06:00
M
2 °C 9 mi 2.000 ft 340° 340° 14 - 26 kt METAR CYTZ 281100Z AUTO 34014G26KT 9SM BKN020 02/M02 A2975 RMK SLP080
05:00
M
3 °C 9 mi 2.000 ft 320° 320° 13 - 20 kt METAR CYTZ 281000Z AUTO 32013G20KT 9SM OVC020 03/00 A2972 RMK SLP067
04:00
M
4 °C 9 mi 1.600 ft 320° 320° 9 - 19 kt METAR CYTZ 280900Z AUTO 32009G19KT 9SM BKN016 OVC032 04/01 A2968 RMK SLP055
03:14
M
4 °C 9 mi 1.600 ft 320° 320° 13 - 22 kt METAR CYTZ 280814Z AUTO 32013G22KT 9SM BKN016 OVC025 04/01 A2965 RMK PRESRR SLP045
03:00
M
4 °C 9 mi 2.500 ft 320° 320° 19 - 27 kt METAR CYTZ 280800Z AUTO 32019G27KT 9SM SCT016 OVC025 04/01 A2964 RMK SLP040
02:56
M
4 °C 9 mi 2.500 ft 320° 320° 16 - 26 kt METAR CYTZ 280756Z AUTO 32016G26KT 9SM SCT016 OVC025 04/01 A2963 RMK SLP039
02:44
M
4 °C 9 mi 1.600 ft 320° 320° 13 - 24 kt METAR CYTZ 280744Z AUTO 32013G24KT 9SM BKN016 BKN027 OVC036 04/02 A2963 RMK SLP037
02:00
V
4 °C 9 mi 3.500 ft 320° 320° 15 - 21 kt METAR CYTZ 280700Z AUTO 32015G21KT 9SM SCT016 BKN035 BKN071 OVC092 04/02 A2959 RMK SLP024
01:45
V
4 °C 9 mi 3.700 ft 320° 320° 13 - 22 kt METAR CYTZ 280645Z AUTO 32013G22KT 9SM SCT016 BKN037 BKN055 OVC092 04/02 A2959 RMK SLP024
01:39
M
4 °C 9 mi 1.600 ft 320° 320° 14 - 21 kt METAR CYTZ 280639Z AUTO 32014G21KT 9SM BKN016 BKN055 BKN072 OVC092 04/02 A2958 RMK SLP022
01:22
V
4 °C 9 mi 5.500 ft 320° 320° 13 - 22 kt METAR CYTZ 280622Z AUTO 32013G22KT 9SM SCT014 BKN055 OVC077 04/02 A2957 RMK SLP018
01:13
M
4 °C 9 mi 1.400 ft 320° 320° 14 - 21 kt METAR CYTZ 280613Z AUTO 32014G21KT 9SM BKN014 BKN055 BKN077 OVC091 04/02 A2957 RMK SLP017
01:01
V
4 °C 9 mi 7.600 ft 320° 320° 13 - 19 kt METAR CYTZ 280601Z AUTO 32013G19KT 9SM SCT014 BKN076 OVC091 04/02 A2956 RMK SLP015
01:00
M
4 °C 9 mi 1.400 ft 320° 320° 13 - 19 kt METAR CYTZ 280600Z AUTO 32013G19KT 9SM BKN014 BKN081 OVC091 04/02 A2956 RMK SLP015
00:30
M
4 °C 9 mi 1.400 ft 310° 310° 12 - 18 kt METAR CYTZ 280530Z AUTO 31012G18KT 9SM BKN014 BKN050 OVC091 04/02 A2955 RMK PRESRR SLP010
00:00
V
4 °C 9 mi - 320° 320° 12 - 17 kt METAR CYTZ 280500Z AUTO 32012G17KT 9SM FEW019 SCT240 04/01 A2952 RMK PRESRR SLP002

2022年11月27日

时间 代码 天气 温度 能见度 天花板 METAR/SPECI
23:45
V
4 °C 9 mi 14.000 ft 330° 330° 9 - 18 kt METAR CYTZ 280445Z AUTO 33009G18KT 9SM SCT015 SCT021 BKN140 04/01 A2951 RMK SLP997
23:00
M
4 °C 9 mi 1.500 ft 330° 330° 10 - 22 kt METAR CYTZ 280400Z AUTO 33010G22KT 9SM OVC015 04/02 A2949 RMK PRESRR SLP991
22:08
M
4 °C 9 mi 1.500 ft 320° 320° 13 - 18 kt METAR CYTZ 280308Z AUTO 32013G18KT 9SM BKN015 BKN050 OVC110 04/02 A2945 RMK PRESRR SLP977
22:00
V
4 °C 9 mi 5.000 ft 320° 320° 11 - 21 kt METAR CYTZ 280300Z AUTO 32011G21KT 9SM SCT015 BKN050 OVC110 04/02 A2944 RMK SLP972
21:59
V
4 °C 9 mi 5.000 ft 330° 330° 11 - 21 kt METAR CYTZ 280259Z AUTO 33011G21KT 9SM SCT015 BKN050 OVC100 04/02 A2944 RMK SLP972
21:39
M
4 °C 9 mi 1.500 ft 330° 330° 15 - 24 kt METAR CYTZ 280239Z AUTO 33015G24KT 9SM BKN015 OVC045 04/02 A2944 RMK SLP972
21:27
M
5 °C 9 mi 1.500 ft 320° 320° 11 - 18 kt METAR CYTZ 280227Z AUTO 32011G18KT 9SM -RA BKN015 BKN033 OVC044 05/02 A2943 RMK SLP970
21:00
M
5 °C 9 mi 1.500 ft 340° 340° 10 - 20 kt METAR CYTZ 280200Z AUTO 34010G20KT 310V010 9SM BKN015 OVC035 05/03 A2942 RMK SLP966
20:42
M
5 °C 9 mi 1.500 ft 330° 330° 8 - 17 kt METAR CYTZ 280142Z AUTO 33008G17KT 310V010 9SM BKN015 OVC028 05/03 A2940 RMK PRESRR SLP961
20:35
M
5 °C 6 mi 1.500 ft 340° 340° 8 - 17 kt METAR CYTZ 280135Z AUTO 34008G17KT 310V030 6SM -RA BR BKN015 OVC028 05/03 A2940 RMK SLP958
20:30
M
5 °C 4 mi 1.500 ft 360° 360° 10 - 18 kt METAR CYTZ 280130Z AUTO 36010G18KT 310V030 4SM -RA BR BKN015 OVC028 05/04 A2939 RMK SLP956
20:00
M
5 °C 3 mi 2.600 ft 340° 340° 9 - 18 kt METAR CYTZ 280100Z AUTO 34009G18KT 3SM -RA BR SCT012 OVC026 05/04 A2938 RMK SLP952
19:58
M
5 °C 3 mi 2.600 ft 340° 340° 10 - 18 kt METAR CYTZ 280058Z AUTO 34010G18KT 3SM -RA BR SCT012 OVC026 05/04 A2938 RMK SLP952
19:00
I
6 °C 3 mi 1.000 ft 340° 340° 9 kt METAR CYTZ 280000Z AUTO 34009KT 3SM -RA BR BKN010 OVC018 06/04 A2934 RMK SLP941
18:24
M
6 °C 4 mi 1.400 ft 350° 350° 9 kt METAR CYTZ 272324Z AUTO 35009KT 4SM -RA BR OVC014 06/04 A2932 RMK SLP934
18:20
M
6 °C 5 mi 1.400 ft 350° 350° 9 - 15 kt METAR CYTZ 272320Z AUTO 35009G15KT 310V030 5SM BR OVC014 06/04 A2933 RMK SLP935
18:00
M
6 °C 9 mi 1.400 ft 360° 360° 10 kt METAR CYTZ 272300Z AUTO 36010KT 9SM OVC014 06/04 A2933 RMK SLP936
17:56
M
6 °C 9 mi 1.600 ft 010° 010° 7 kt METAR CYTZ 272256Z AUTO 01007KT 9SM OVC016 06/04 A2933 RMK SLP937
17:06
M
6 °C 9 mi 1.600 ft 030° 030° 12 - 26 kt METAR CYTZ 272206Z AUTO 03012G26KT 9SM -RA OVC016 06/04 A2931 RMK PRESFR SLP930
17:00
M
5 °C 9 mi 1.600 ft 040° 040° 12 - 26 kt METAR CYTZ 272200Z AUTO 04012G26KT 9SM OVC016 05/04 A2931 RMK PRESFR SLP931
16:52
M
6 °C 9 mi 1.600 ft 040° 040° 14 - 23 kt METAR CYTZ 272152Z AUTO 04014G23KT 9SM OVC016 06/04 A2933 RMK SLP936
16:41
M
5 °C 6 mi 1.800 ft 050° 050° 12 - 24 kt METAR CYTZ 272141Z AUTO 05012G24KT 6SM -RA BR OVC018 05/04 A2933 RMK SLP937
16:35
I
5 °C 3 mi 1.600 ft 050° 050° 16 - 25 kt METAR CYTZ 272135Z AUTO 05016G25KT 3SM -RA BR BKN016 OVC021 05/04 A2932 RMK SLP934
16:30
I
5 °C 2¼ mi 1.600 ft 050° 050° 17 - 29 kt METAR CYTZ 272130Z AUTO 05017G29KT 2 1/4SM -RA BR BKN016 OVC021 05/04 A2932 RMK SLP934
16:23
M
5 °C 4 mi 2.100 ft 060° 060° 20 - 29 kt METAR CYTZ 272123Z AUTO 06020G29KT 4SM -RA BR SCT016 OVC021 05/04 A2933 RMK SLP936
16:11
M
6 °C 9 mi 2.100 ft 050° 050° 19 - 29 kt METAR CYTZ 272111Z AUTO 05019G29KT 9SM -RA OVC021 06/03 A2933 RMK SLP937
16:00
M
6 °C 9 mi 2.100 ft 050° 050° 22 - 29 kt METAR CYTZ 272100Z AUTO 05022G29KT 9SM OVC021 06/03 A2932 RMK SLP933
15:51
M
6 °C 9 mi 2.100 ft 050° 050° 22 - 27 kt SPECI CYTZ 272051Z AUTO 05022G27KT 9SM OVC021 06/03 A2932 RMK SLP934
15:30
M
7 °C 9 mi 2.300 ft 050° 050° 16 - 27 kt METAR CYTZ 272030Z AUTO 05016G27KT 9SM -RA OVC023 07/02 A2933 RMK SLP937
15:26
M
7 °C 9 mi 2.300 ft 050° 050° 22 - 27 kt METAR CYTZ 272026Z AUTO 05022G27KT 9SM OVC023 07/02 A2933 RMK PRESFR SLP935
15:00
M
6 °C 9 mi 2.900 ft 040° 040° 20 - 27 kt METAR CYTZ 272000Z AUTO 04020G27KT 9SM OVC029 06/03 A2934 RMK SLP941
14:23
V
6 °C 9 mi 3.500 ft 040° 040° 18 - 24 kt METAR CYTZ 271923Z AUTO 04018G24KT 9SM BKN035 OVC060 06/02 A2938 RMK SLP953
14:00
V
6 °C 9 mi 3.700 ft 050° 050° 19 - 25 kt METAR CYTZ 271900Z AUTO 05019G25KT 9SM -RA BKN037 BKN049 OVC060 06/03 A2939 RMK PRESFR SLP956
13:56
V
6 °C 9 mi 3.700 ft 040° 040° 18 - 25 kt METAR CYTZ 271856Z AUTO 04018G25KT 9SM -RA BKN037 OVC060 06/03 A2939 RMK PRESFR SLP956
13:23
V
6 °C 9 mi 3.900 ft 050° 050° 12 - 24 kt METAR CYTZ 271823Z AUTO 05012G24KT 9SM OVC039 06/03 A2944 RMK PRESFR SLP972
13:00
V
5 °C 9 mi 3.900 ft 050° 050° 14 - 19 kt METAR CYTZ 271800Z AUTO 05014G19KT 9SM -RA OVC039 05/03 A2946 RMK PRESFR PCPN 1.5MM PAST HR SLP980
12:49
V
5 °C 6 mi 3.900 ft 060° 060° 13 - 19 kt SPECI CYTZ 271749Z AUTO 06013G19KT 6SM -RA BR OVC039 05/03 A2948 RMK PRESFR SLP987
12:36
V
5 °C 5 mi 3.700 ft 060° 060° 14 - 21 kt METAR CYTZ 271736Z AUTO 06014G21KT 5SM -RA BR OVC037 05/03 A2950 RMK PRESFR SLP992
12:00
V
6 °C 9 mi 4.400 ft 060° 060° 14 - 19 kt METAR CYTZ 271700Z AUTO 06014G19KT 9SM -RA BKN044 OVC050 06/04 A2953 RMK PRESFR SLP005
11:00
V
6 °C 8 mi 8.000 ft 060° 060° 14 kt METAR CYTZ 271600Z AUTO 06014KT 8SM -RA SCT060 OVC080 06/04 A2957 RMK PRESFR SLP018
10:00
V
6 °C 9 mi 8.700 ft 090° 090° 8 kt METAR CYTZ 271500Z AUTO 09008KT 9SM -RA SCT066 OVC087 06/03 A2961 RMK SLP031
09:35
V
6 °C 9 mi 8.100 ft 080° 080° 9 kt METAR CYTZ 271435Z AUTO 08009KT 9SM -RA BKN081 OVC110 06/03 A2962 RMK SLP034
09:00
V
6 °C 9 mi 11.000 ft 060° 060° 11 kt METAR CYTZ 271400Z AUTO 06011KT 9SM FEW076 BKN110 OVC140 06/03 A2963 RMK SLP039
08:00
V
5 °C 9 mi 17.000 ft 080° 080° 5 kt METAR CYTZ 271300Z AUTO 08005KT 9SM OVC170 05/03 A2967 RMK PRESFR SLP051
07:00
V
4 °C 9 mi 18.000 ft Var 000° 0 kt METAR CYTZ 271200Z AUTO 00000KT 9SM BKN180 OVC200 04/01 A2970 RMK SLP060
06:00
V
5 °C 9 mi 19.000 ft 100° 100° 3 kt METAR CYTZ 271100Z AUTO 10003KT 030V140 9SM BKN190 OVC230 05/02 A2973 RMK SLP070
05:00
V
4 °C 9 mi 21.000 ft Var 000° 0 kt METAR CYTZ 271000Z AUTO 00000KT 9SM BKN210 BKN230 04/02 A2975 RMK SLP078
04:00
V
5 °C 9 mi 22.000 ft 260° 260° 3 kt METAR CYTZ 270900Z AUTO 26003KT 210V310 9SM BKN220 OVC240 05/03 A2978 RMK SLP087
03:00
V
5 °C 9 mi 24.000 ft 210° 210° 6 kt METAR CYTZ 270800Z AUTO 21006KT 9SM BKN240 05/03 A2979 RMK SLP091
02:00
V
6 °C 9 mi - 250° 250° 4 kt METAR CYTZ 270700Z AUTO 25004KT 9SM CLR 06/02 A2980 RMK SLP095
01:00
V
5 °C 9 mi - 240° 240° 7 kt METAR CYTZ 270600Z AUTO 24007KT 9SM CLR 05/02 A2980 RMK SLP096
00:00
V
5 °C 9 mi - 240° 240° 10 kt METAR CYTZ 270500Z AUTO 24010KT 9SM CLR 05/03 A2982 RMK SLP103

2022年11月26日

时间 代码 天气 温度 能见度 天花板 METAR/SPECI
23:00
V
6 °C 9 mi - 270° 270° 12 kt METAR CYTZ 270400Z AUTO 27012KT 9SM CLR 06/00 A2983 RMK SLP104
22:00
V
6 °C 9 mi - 260° 260° 9 - 15 kt METAR CYTZ 270300Z AUTO 26009G15KT 9SM CLR 06/01 A2984 RMK SLP110
21:00
V
5 °C 9 mi - 240° 240° 12 kt METAR CYTZ 270200Z AUTO 24012KT 230V290 9SM CLR 05/03 A2987 RMK SLP120
20:00
V
6 °C 9 mi - 230° 230° 9 kt METAR CYTZ 270100Z AUTO 23009KT 9SM CLR 06/03 A2987 RMK SLP119
19:00
V
6 °C 9 mi - 220° 220° 9 kt METAR CYTZ 270000Z AUTO 22009KT 9SM CLR 06/03 A2988 RMK SLP124
18:00
V
7 °C 9 mi - 220° 220° 10 - 15 kt METAR CYTZ 262300Z AUTO 22010G15KT 9SM CLR 07/03 A2988 RMK SLP124
17:00
V
7 °C 9 mi - 220° 220° 14 - 22 kt METAR CYTZ 262200Z AUTO 22014G22KT 9SM CLR 07/04 A2989 RMK SLP125
16:00
V
8 °C 9 mi - 210° 210° 17 kt METAR CYTZ 262100Z AUTO 21017KT 9SM CLR 08/04 A2986 RMK SLP117
15:00
V
9 °C 9 mi - 200° 200° 16 kt METAR CYTZ 262000Z AUTO 20016KT 9SM CLR 09/05 A2987 RMK SLP118
14:00
V
9 °C 9 mi - 200° 200° 15 kt METAR CYTZ 261900Z AUTO 20015KT 9SM CLR 09/05 A2988 RMK SLP124
13:00
V
9 °C 9 mi - 220° 220° 14 - 22 kt METAR CYTZ 261800Z AUTO 22014G22KT 9SM CLR 09/03 A2990 RMK SLP130
12:00
V
8 °C 9 mi - 220° 220° 16 kt METAR CYTZ 261700Z AUTO 22016KT 9SM CLR 08/02 A2994 RMK PRESFR SLP142
11:00
V
6 °C 9 mi - 220° 220° 10 - 18 kt METAR CYTZ 261600Z AUTO 22010G18KT 9SM CLR 06/02 A2998 RMK SLP157
10:00
V
5 °C 9 mi - 240° 240° 9 - 17 kt METAR CYTZ 261500Z AUTO 24009G17KT 9SM CLR 05/01 A3000 RMK SLP164
09:00
V
4 °C 9 mi - 230° 230° 9 - 16 kt METAR CYTZ 261400Z AUTO 23009G16KT 9SM CLR 04/01 A3001 RMK SLP166
08:00
V
3 °C 9 mi - 220° 220° 9 - 15 kt METAR CYTZ 261300Z AUTO 22009G15KT 9SM CLR 03/01 A3001 RMK SLP167
07:00
V
2 °C 9 mi - 260° 260° 11 kt METAR CYTZ 261200Z AUTO 26011KT 9SM CLR 02/00 A3003 RMK SLP172
06:00
V
3 °C 9 mi - 220° 220° 10 - 16 kt METAR CYTZ 261100Z AUTO 22010G16KT 9SM CLR 03/01 A3002 RMK SLP169
05:00
V
3 °C 9 mi - 250° 250° 8 kt METAR CYTZ 261000Z AUTO 25008KT 9SM CLR 03/00 A3003 RMK SLP175

我们和第三方通过cookies跟踪您在我们网站上的互联网行为。如果你继续,我们认为你同意我们的饼干政策